Time;durP1;ratioP1;P1;durP2;ratioP2;P2;SDS_P1;SDS_P2;PMS_P1;PMS_P2;Temp;Humidity;BMP_temperature;BMP_pressure;BME280_temperature;BME280_humidity;BME280_pressure;Samples;Min_cycle;Max_cycle;Signal;HPM_P1;HPM_P2
2022/05/19 00:00:20;;;;;;;;;;;;;;;24.38;48.49;101595.34;5072529;28;20017;-82
2022/05/19 00:02:45;;;;;;;;;;;;;;;24.37;49.02;101597.31;5074419;28;19917;-83
2022/05/19 00:05:10;;;;;;;;;;;;;;;24.37;48.65;101588.22;5073814;28;20074;-83
2022/05/19 00:07:36;;;;;;;;;;;;;;;24.37;48.54;101579.94;5072586;28;19986;-83
2022/05/19 00:10:02;;;;;;;;;;;;;;;24.37;48.52;101582.69;5073710;28;19939;-82
2022/05/19 00:12:28;;;;;;;;;;;;;;;24.36;48.99;101575.53;5072421;28;19937;-83
2022/05/19 00:14:54;;;;;;;;;;;;;;;24.36;48.60;101578.28;5073802;28;19934;-83
2022/05/19 00:17:19;;;;;;;;;;;;;;;24.36;48.60;101578.28;5072563;28;20029;-83
2022/05/19 00:19:44;;;;;;;;;;;;;;;24.35;48.78;101571.97;5072920;28;20357;-83
2022/05/19 00:22:11;;;;;;;;;;;;;;;24.35;48.62;101579.44;5074630;28;20350;-83
2022/05/19 00:24:37;;;;;;;;;;;;;;;24.35;48.64;101576.66;5072991;28;19962;-83
2022/05/19 00:27:02;;;;;;;;;;;;;;;24.35;48.74;101576.66;5056056;28;19935;-83
2022/05/19 00:29:27;;;;;;;;;;;;;;;24.35;48.83;101579.44;5073515;28;19937;-83
2022/05/19 00:31:53;;;;;;;;;;;;;;;24.34;48.79;101564.81;5072315;28;20016;-83
2022/05/19 00:34:18;;;;;;;;;;;;;;;24.33;49.09;101567.88;5072510;28;19924;-83
2022/05/19 00:36:43;;;;;;;;;;;;;;;24.33;48.96;101565.94;5073580;28;19960;-83
2022/05/19 00:39:10;;;;;;;;;;;;;;;24.33;48.97;101563.16;5073356;28;19935;-83
2022/05/19 00:41:39;;;;;;;;;;;;;;;24.32;48.77;101553.25;5073399;28;19929;-83
2022/05/19 00:44:05;;;;;;;;;;;;;;;24.32;48.77;101550.50;5073070;28;19927;-83
2022/05/19 00:46:36;;;;;;;;;;;;;;;24.32;48.63;101539.47;5073509;28;20264;-82
2022/05/19 00:49:06;;;;;;;;;;;;;;;24.32;49.07;101533.13;5073129;28;19920;-83
2022/05/19 00:51:41;;;;;;;;;;;;;;;24.31;48.78;101535.06;5072893;28;19916;-83
2022/05/19 00:54:09;;;;;;;;;;;;;;;24.31;49.19;101535.06;5072846;28;19960;-83
2022/05/19 00:56:55;;;;;;;;;;;;;;;24.30;49.21;101533.44;5076610;28;20373;-83
2022/05/19 00:59:31;;;;;;;;;;;;;;;24.31;48.73;101534.25;5076298;28;20003;-82
2022/05/19 01:01:57;;;;;;;;;;;;;;;24.31;48.81;101525.97;5077133;28;19917;-82
2022/05/19 01:04:22;;;;;;;;;;;;;;;24.31;49.15;101517.69;5076690;28;19920;-83
2022/05/19 01:06:49;;;;;;;;;;;;;;;24.30;49.04;101521.59;5076570;28;20025;-83
2022/05/19 01:09:15;;;;;;;;;;;;;;;24.29;48.77;101512.50;5075599;28;19931;-82
2022/05/19 01:11:41;;;;;;;;;;;;;;;24.28;49.18;101508.09;5076599;28;19944;-82
2022/05/19 01:14:06;;;;;;;;;;;;;;;24.29;48.72;101508.88;5077139;28;19982;-82
2022/05/19 01:16:32;;;;;;;;;;;;;;;24.28;49.23;101494.28;5077062;28;20290;-83
2022/05/19 01:18:58;;;;;;;;;;;;;;;24.28;48.75;101487.94;5075089;28;19962;-82
2022/05/19 01:21:25;;;;;;;;;;;;;;;24.29;48.86;101489.56;5076451;28;19917;-83
2022/05/19 01:24:11;;;;;;;;;;;;;;;24.28;48.77;101488.75;5076155;28;19938;-83
2022/05/19 01:26:41;;;;;;;;;;;;;;;24.28;48.99;101485.19;5075764;28;20290;-83
2022/05/19 01:29:07;;;;;;;;;;;;;;;24.27;48.90;101492.66;5076019;28;19927;-83
2022/05/19 01:31:34;;;;;;;;;;;;;;;24.27;48.77;101486.34;5076684;28;19917;-83
2022/05/19 01:34:00;;;;;;;;;;;;;;;24.27;48.91;101486.34;5075039;28;19986;-83
2022/05/19 01:36:25;;;;;;;;;;;;;;;24.26;48.91;101491.00;5076269;28;19930;-83
2022/05/19 01:38:56;;;;;;;;;;;;;;;24.27;48.97;101489.09;5074978;28;19949;-84
2022/05/19 01:41:24;;;;;;;;;;;;;;;24.25;49.22;101481.13;5076464;28;19962;-83
2022/05/19 01:44:08;;;;;;;;;;;;;;;24.25;49.16;101475.59;5075593;28;20272;-83
2022/05/19 01:46:35;;;;;;;;;;;;;;;24.24;48.86;101468.47;5074596;28;19947;-83
2022/05/19 01:49:08;;;;;;;;;;;;;;;24.25;49.03;101466.50;5075637;28;19920;-82
2022/05/19 01:51:43;;;;;;;;;;;;;;;24.26;49.30;101465.38;5075841;28;20398;-83
2022/05/19 01:54:13;;;;;;;;;;;;;;;24.26;48.99;101465.38;5076338;28;19937;-82
2022/05/19 01:56:43;;;;;;;;;;;;;;;24.24;49.30;101460.19;5076170;28;20314;-83
2022/05/19 01:59:12;;;;;;;;;;;;;;;24.24;49.12;101462.94;5074942;28;19977;-83
2022/05/19 02:01:39;;;;;;;;;;;;;;;24.25;48.91;101458.22;5074196;28;19970;-82
2022/05/19 02:04:10;;;;;;;;;;;;;;;24.23;49.11;101455.78;5074289;28;19916;-82
2022/05/19 02:06:38;;;;;;;;;;;;;;;24.24;49.39;101462.09;5075551;28;19917;-83
2022/05/19 02:09:08;;;;;;;;;;;;;;;24.23;49.20;101460.47;5076294;28;19930;-82
2022/05/19 02:11:38;;;;;;;;;;;;;;;24.23;48.99;101464.06;5075801;28;19931;-82
2022/05/19 02:14:07;;;;;;;;;;;;;;;24.23;49.05;101466.81;5074912;28;19931;-82
2022/05/19 02:16:33;;;;;;;;;;;;;;;24.23;49.21;101468.75;5075737;28;19946;-83
2022/05/19 02:18:59;;;;;;;;;;;;;;;24.23;49.14;101469.56;5058003;28;20354;-83
2022/05/19 02:21:25;;;;;;;;;;;;;;;24.23;49.18;101466.00;5076001;28;20352;-83
2022/05/19 02:23:50;;;;;;;;;;;;;;;24.23;49.47;101466.00;5075500;28;19923;-83
2022/05/19 02:26:15;;;;;;;;;;;;;;;24.22;49.09;101465.19;5075006;28;19920;-83
2022/05/19 02:28:50;;;;;;;;;;;;;;;24.22;49.34;101476.25;5075495;28;19974;-83
2022/05/19 02:31:15;;;;;;;;;;;;;;;24.22;49.12;101489.19;5074028;28;19957;-82
2022/05/19 02:33:41;;;;;;;;;;;;;;;24.21;49.14;101551.88;5074022;28;19920;-83
2022/05/19 02:36:08;;;;;;;;;;;;;;;24.22;49.22;101596.88;5073903;28;19938;-82
2022/05/19 02:38:33;;;;;;;;;;;;;;;24.23;49.13;101587.47;5073942;28;20428;-83
2022/05/19 02:40:58;;;;;;;;;;;;;;;24.21;49.24;101582.25;5074032;28;19924;-82
2022/05/19 02:43:23;;;;;;;;;;;;;;;24.21;49.15;101607.09;5074711;28;19941;-82
2022/05/19 02:45:49;;;;;;;;;;;;;;;24.21;49.34;101628.38;5074061;28;20471;-82
2022/05/19 02:48:15;;;;;;;;;;;;;;;24.19;49.28;101632.28;5075033;28;19942;-82
2022/05/19 02:50:42;;;;;;;;;;;;;;;24.19;49.60;101632.28;5074084;28;19921;-83
2022/05/19 02:53:08;;;;;;;;;;;;;;;24.19;49.15;101637.78;5074767;28;20011;-82
2022/05/19 02:55:33;;;;;;;;;;;;;;;24.19;49.66;101648.00;5074775;28;19955;-82
2022/05/19 02:57:58;;;;;;;;;;;;;;;24.18;49.17;101636.16;5074193;28;19928;-82
2022/05/19 03:00:24;;;;;;;;;;;;;;;24.18;49.66;101627.88;5056667;28;19950;-82
2022/05/19 03:02:51;;;;;;;;;;;;;;;24.18;49.61;101629.81;5073143;28;20389;-82
2022/05/19 03:05:18;;;;;;;;;;;;;;;24.17;49.37;101637.28;5074500;28;20311;-82
2022/05/19 03:07:44;;;;;;;;;;;;;;;24.17;49.24;101647.53;5073118;28;19949;-82
2022/05/19 03:10:09;;;;;;;;;;;;;;;24.17;49.68;101645.56;5073074;28;20033;-83
2022/05/19 03:12:35;;;;;;;;;;;;;;;24.17;49.63;101636.47;5074129;28;20021;-82
2022/05/19 03:15:00;;;;;;;;;;;;;;;24.16;49.22;101627.34;5073274;28;20412;-82
2022/05/19 03:17:25;;;;;;;;;;;;;;;24.16;49.21;101619.06;5072376;28;20364;-83
2022/05/19 03:19:54;;;;;;;;;;;;;;;24.16;49.56;101627.34;5074343;28;20459;-83
2022/05/19 03:22:20;;;;;;;;;;;;;;;24.16;49.27;101621.84;5073505;28;19934;-82
2022/05/19 03:24:45;;;;;;;;;;;;;;;24.15;49.42;101625.75;5074122;28;19950;-83
2022/05/19 03:27:10;;;;;;;;;;;;;;;24.16;49.71;101626.53;5074371;28;20025;-84
2022/05/19 03:29:35;;;;;;;;;;;;;;;24.16;49.63;101621.03;5073420;28;20357;-83
2022/05/19 03:32:01;;;;;;;;;;;;;;;24.16;49.79;101619.06;5072897;28;20003;-84
2022/05/19 03:34:26;;;;;;;;;;;;;;;24.16;49.44;101618.25;5074042;28;20380;-85
2022/05/19 03:36:51;;;;;;;;;;;;;;;24.15;49.54;101624.94;5056358;28;19935;-83
2022/05/19 03:39:18;;;;;;;;;;;;;;;24.15;49.83;101624.94;5072625;28;20398;-83
2022/05/19 03:41:43;;;;;;;;;;;;;;;24.15;49.42;101625.75;5074851;28;19916;-83
2022/05/19 03:44:08;;;;;;;;;;;;;;;24.15;49.86;101625.75;5074296;28;19969;-84
2022/05/19 03:46:34;;;;;;;;;;;;;;;24.15;49.98;101630.44;5072620;28;19966;-84
2022/05/19 03:48:59;;;;;;;;;;;;;;;24.15;49.67;101642.28;5074297;28;20003;-85
2022/05/19 03:51:26;;;;;;;;;;;;;;;24.15;50.06;101641.50;5073442;28;20334;-84
2022/05/19 03:53:52;;;;;;;;;;;;;;;24.15;49.91;101644.25;5073400;28;19920;-85
2022/05/19 03:56:18;;;;;;;;;;;;;;;24.15;49.69;101658.06;5072772;28;19935;-84
2022/05/19 03:58:43;;;;;;;;;;;;;;;24.14;50.06;101657.25;5072572;28;20457;-83
2022/05/19 04:01:08;;;;;;;;;;;;;;;24.15;49.93;101658.88;5073711;28;19970;-83
2022/05/19 04:03:34;;;;;;;;;;;;;;;24.15;50.05;101666.34;5072993;28;19944;-84
2022/05/19 04:05:59;;;;;;;;;;;;;;;24.16;49.67;101690.03;5056225;28;20394;-84
2022/05/19 04:08:24;;;;;;;;;;;;;;;24.15;49.67;101696.69;5072502;28;20063;-82
2022/05/19 04:10:49;;;;;;;;;;;;;;;24.15;50.05;101693.94;5072549;28;19920;-81
2022/05/19 04:13:15;;;;;;;;;;;;;;;24.14;50.15;101676.56;5072612;28;20305;-82
2022/05/19 04:15:40;;;;;;;;;;;;;;;24.14;49.76;101662.75;5072771;28;20398;-82
2022/05/19 04:18:06;;;;;;;;;;;;;;;24.15;50.16;101667.16;5072696;28;19916;-82
2022/05/19 04:20:31;;;;;;;;;;;;;;;24.14;49.76;101657.25;5072331;28;20345;-83
2022/05/19 04:22:57;;;;;;;;;;;;;;;24.14;49.93;101657.25;5072662;28;19937;-83
2022/05/19 04:25:23;;;;;;;;;;;;;;;24.15;49.82;101674.63;5073448;28;19954;-82
2022/05/19 04:27:48;;;;;;;;;;;;;;;24.14;49.96;101668.28;5074446;28;20354;-82
2022/05/19 04:30:14;;;;;;;;;;;;;;;24.15;50.30;101677.38;5074436;28;19943;-84
2022/05/19 04:32:39;;;;;;;;;;;;;;;24.15;49.94;101664.38;5076025;28;20392;-82
2022/05/19 04:35:04;;;;;;;;;;;;;;;24.15;50.00;101656.09;5060119;28;19947;-83
2022/05/19 04:37:30;;;;;;;;;;;;;;;24.15;49.89;101663.56;5076461;28;20441;-82
2022/05/19 04:39:55;;;;;;;;;;;;;;;24.15;50.21;101652.53;5059726;28;20292;-83
2022/05/19 04:42:20;;;;;;;;;;;;;;;24.16;49.91;101659.66;5077880;28;19934;-83
2022/05/19 04:44:45;;;;;;;;;;;;;;;24.16;49.98;101660.47;5075641;28;19921;-82
2022/05/19 04:47:11;;;;;;;;;;;;;;;24.16;49.92;101654.16;5059047;28;19955;-83
2022/05/19 04:49:36;;;;;;;;;;;;;;;24.16;50.31;101630.13;5076668;28;19932;-83
2022/05/19 04:52:01;;;;;;;;;;;;;;;24.15;50.32;101609.19;5075767;28;19931;-83
2022/05/19 04:54:26;;;;;;;;;;;;;;;24.16;49.80;101598.94;5075607;28;20295;-83
2022/05/19 04:56:52;;;;;;;;;;;;;;;24.16;49.81;101598.94;5076819;28;20416;-83
2022/05/19 04:59:17;;;;;;;;;;;;;;;24.16;50.31;101626.53;5075443;28;19929;-82
2022/05/19 05:01:43;;;;;;;;;;;;;;;24.17;49.81;101636.47;5075205;28;19938;-83
2022/05/19 05:04:09;;;;;;;;;;;;;;;24.17;49.80;101628.19;5075142;28;19945;-83
2022/05/19 05:06:34;;;;;;;;;;;;;;;24.17;49.93;101601.41;5076620;28;20007;-83
2022/05/19 05:09:00;;;;;;;;;;;;;;;24.16;50.28;101579.63;5058874;28;19927;-83
2022/05/19 05:11:25;;;;;;;;;;;;;;;24.17;49.92;101582.06;5075417;28;20287;-83
2022/05/19 05:13:50;;;;;;;;;;;;;;;24.16;50.22;101566.63;5075535;28;19937;-83
2022/05/19 05:16:15;;;;;;;;;;;;;;;24.18;49.93;101560.81;5059161;28;20347;-83
2022/05/19 05:18:41;;;;;;;;;;;;;;;24.17;49.98;101548.94;5075265;28;20391;-83
2022/05/19 05:21:06;;;;;;;;;;;;;;;24.17;50.28;101523.31;5075279;28;19988;-83
2022/05/19 05:23:32;;;;;;;;;;;;;;;24.16;50.13;101496.81;5075225;28;20391;-83
2022/05/19 05:25:57;;;;;;;;;;;;;;;24.17;50.26;101470.84;5076492;28;20009;-83
2022/05/19 05:28:22;;;;;;;;;;;;;;;24.16;50.25;101452.66;5075003;28;20292;-83
2022/05/19 05:30:49;;;;;;;;;;;;;;;24.17;49.79;101440.50;5076508;28;19942;-85
2022/05/19 05:33:15;;;;;;;;;;;;;;;24.17;50.11;101446.81;5077587;28;19933;-88
2022/05/19 05:35:41;;;;;;;;;;;;;;;24.17;49.86;101474.44;5061370;28;19942;-89
2022/05/19 05:38:07;;;;;;;;;;;;;;;24.18;49.86;101519.41;5076399;28;19948;-89
2022/05/19 05:40:33;;;;;;;;;;;;;;;24.18;50.27;101580.13;5076455;28;19924;-88
2022/05/19 05:43:03;;;;;;;;;;;;;;;24.17;50.21;101542.63;5076721;28;19958;-83
2022/05/19 05:45:29;;;;;;;;;;;;;;;24.18;50.10;101552.53;5076518;28;19947;-92
2022/05/19 05:47:54;;;;;;;;;;;;;;;24.18;50.00;101555.28;5077634;28;19927;-88
2022/05/19 05:50:19;;;;;;;;;;;;;;;24.19;50.21;101548.63;5075457;28;19958;-88
2022/05/19 05:52:44;;;;;;;;;;;;;;;24.19;50.54;101535.66;5075673;28;19916;-90
2022/05/19 05:55:10;;;;;;;;;;;;;;;24.21;50.04;101531.75;5076505;28;20007;-90
2022/05/19 05:57:35;;;;;;;;;;;;;;;24.20;50.54;101544.75;5077073;28;19939;-89
2022/05/19 06:00:01;;;;;;;;;;;;;;;24.21;50.11;101559.34;5076556;28;19949;-89
2022/05/19 06:02:26;;;;;;;;;;;;;;;24.20;50.24;101561.31;5058784;28;20329;-90
2022/05/19 06:04:51;;;;;;;;;;;;;;;24.22;50.65;101553.53;5075585;28;19927;-91
2022/05/19 06:07:17;;;;;;;;;;;;;;;24.22;50.27;101558.22;5058443;28;19942;-90
2022/05/19 06:09:43;;;;;;;;;;;;;;;24.21;50.22;101560.16;5075189;28;20023;-87
2022/05/19 06:12:08;;;;;;;;;;;;;;;24.22;50.23;101569.25;5076298;28;20037;-88
2022/05/19 06:14:34;;;;;;;;;;;;;;;24.22;50.31;101566.50;5076530;28;20049;-89
2022/05/19 06:16:59;;;;;;;;;;;;;;;24.22;50.27;101545.25;5058458;28;19944;-90
2022/05/19 06:19:24;;;;;;;;;;;;;;;24.22;50.65;101534.22;5075788;28;19942;-89
2022/05/19 06:21:49;;;;;;;;;;;;;;;24.24;50.44;101539.41;5074891;28;19931;-83
2022/05/19 06:24:15;;;;;;;;;;;;;;;24.24;50.79;101539.41;5075501;28;20268;-81
2022/05/19 06:26:40;;;;;;;;;;;;;;;24.24;50.57;101534.72;5073524;28;19920;-80
2022/05/19 06:29:09;;;;;;;;;;;;;;;24.24;50.59;101536.63;5075042;28;19920;-83
2022/05/19 06:31:35;;;;;;;;;;;;;;;24.23;50.98;101532.25;5074584;28;19927;-84
2022/05/19 06:34:01;;;;;;;;;;;;;;;24.21;50.79;101537.28;5075286;28;19927;-83
2022/05/19 06:36:26;;;;;;;;;;;;;;;24.18;50.86;101538.72;5074402;28;20302;-83
2022/05/19 06:38:52;;;;;;;;;;;;;;;24.16;50.80;101536.25;5075170;28;20494;-85
2022/05/19 06:44:01;;;;;;;;;;;;;;;24.13;50.94;101516.78;5074029;28;19970;-83
2022/05/19 06:46:26;;;;;;;;;;;;;;;24.14;50.89;101504.59;5074421;28;19943;-82
2022/05/19 06:48:52;;;;;;;;;;;;;;;24.13;51.29;101500.22;5073128;28;19953;-83
2022/05/19 06:51:18;;;;;;;;;;;;;;;24.14;51.05;101502.66;5073279;28;19974;-85
2022/05/19 06:53:45;;;;;;;;;;;;;;;24.16;51.12;101494.84;5073695;28;20413;-84
2022/05/19 06:56:12;;;;;;;;;;;;;;;24.18;51.13;101509.16;5073091;28;19920;-87
2022/05/19 06:58:38;;;;;;;;;;;;;;;24.19;51.19;101508.06;5073384;28;20002;-82
2022/05/19 07:01:03;;;;;;;;;;;;;;;24.21;51.22;101504.16;5074706;28;19938;-80
2022/05/19 07:03:28;;;;;;;;;;;;;;;24.22;51.17;101514.88;5073102;28;19989;-86
2022/05/19 07:05:53;;;;;;;;;;;;;;;24.24;51.56;101511.78;5072847;28;20018;-86
2022/05/19 07:08:19;;;;;;;;;;;;;;;24.24;51.62;101507.09;5072969;28;20033;-83
2022/05/19 07:10:44;;;;;;;;;;;;;;;24.26;51.75;101510.34;5072811;28;19940;-85
2022/05/19 07:13:09;;;;;;;;;;;;;;;24.26;51.89;101498.50;5074095;28;20406;-85
2022/05/19 07:15:35;;;;;;;;;;;;;;;24.28;51.51;101496.22;5074052;28;20340;-88
2022/05/19 07:18:00;;;;;;;;;;;;;;;24.28;51.60;101502.56;5072647;28;19938;-87
2022/05/19 07:20:43;;;;;;;;;;;;;;;24.30;51.74;101505.81;5073513;28;20443;-90
2022/05/19 07:23:10;;;;;;;;;;;;;;;24.31;52.12;101510.22;5073748;28;19964;-86
2022/05/19 07:25:36;;;;;;;;;;;;;;;24.33;51.73;101509.91;5073832;28;20007;-88
2022/05/19 07:28:01;;;;;;;;;;;;;;;24.34;51.69;101517.88;5072804;28;20081;-89
2022/05/19 07:30:26;;;;;;;;;;;;;;;24.34;51.78;101509.59;5072790;28;20305;-87
2022/05/19 07:32:54;;;;;;;;;;;;;;;24.35;51.71;101513.97;5072918;28;19931;-87
2022/05/19 07:35:21;;;;;;;;;;;;;;;24.38;51.76;101515.28;5074157;28;19932;-88
2022/05/19 07:37:46;;;;;;;;;;;;;;;24.38;51.98;101518.03;5073989;28;19931;-88
2022/05/19 07:40:12;;;;;;;;;;;;;;;24.39;51.76;101520.50;5074361;28;20395;-86
2022/05/19 07:42:37;;;;;;;;;;;;;;;24.39;51.87;101520.50;5074317;28;19920;-86
2022/05/19 07:45:03;;;;;;;;;;;;;;;24.41;51.83;101514.63;5074072;28;19954;-87
2022/05/19 07:47:29;;;;;;;;;;;;;;;24.41;51.92;101518.22;5072224;28;19943;-87
2022/05/19 07:49:56;;;;;;;;;;;;;;;24.43;52.24;101514.34;5072463;28;20030;-86
2022/05/19 07:52:21;;;;;;;;;;;;;;;24.45;51.80;101528.66;5073863;28;20338;-89
2022/05/19 07:54:47;;;;;;;;;;;;;;;24.44;51.88;101516.75;5072916;28;19934;-86
2022/05/19 07:57:12;;;;;;;;;;;;;;;24.45;51.96;101506.56;5072258;28;19920;-85
2022/05/19 07:59:37;;;;;;;;;;;;;;;24.47;51.88;101509.81;5055455;28;19963;-84
2022/05/19 08:02:03;;;;;;;;;;;;;;;24.47;52.21;101507.91;5072564;28;19928;-85
2022/05/19 08:04:28;;;;;;;;;;;;;;;24.47;51.93;101510.66;5076047;28;19952;-87
2022/05/19 08:06:54;;;;;;;;;;;;;;;24.48;51.98;101506.75;5077573;28;19947;-87
2022/05/19 08:12:04;;;;;;;;;;;;;;;24.49;51.99;101500.06;5078074;28;20368;-86
2022/05/19 08:17:17;;;;;;;;;;;;;;;24.51;52.43;101499.78;5077180;28;19927;-86
2022/05/19 08:19:42;;;;;;;;;;;;;;;24.52;52.02;101495.88;5076187;28;19931;-84
2022/05/19 08:22:08;;;;;;;;;;;;;;;24.53;52.18;101495.56;5077479;28;20401;-87
2022/05/19 08:24:33;;;;;;;;;;;;;;;24.53;51.93;101490.03;5079905;28;19924;-83
2022/05/19 08:26:59;;;;;;;;;;;;;;;24.55;52.33;101492.50;5077728;28;20471;-86
2022/05/19 08:29:25;;;;;;;;;;;;;;;24.55;52.02;101485.00;5059570;28;19970;-84
2022/05/19 08:31:50;;;;;;;;;;;;;;;24.57;52.00;101493.00;5076012;28;19921;-90
2022/05/19 08:34:17;;;;;;;;;;;;;;;24.60;52.19;101492.34;5076632;28;20317;-82
2022/05/19 08:36:43;;;;;;;;;;;;;;;24.64;52.04;101495.28;5078154;28;19939;-85
2022/05/19 08:39:09;;;;;;;;;;;;;;;24.65;52.42;101491.38;5075603;28;20338;-84
2022/05/19 08:41:55;;;;;;;;;;;;;;;24.66;51.88;101487.47;5077123;28;19992;-84
2022/05/19 08:44:32;;;;;;;;;;;;;;;24.68;52.00;101483.25;5077649;28;19927;-84
2022/05/19 08:47:00;;;;;;;;;;;;;;;24.70;52.32;101485.72;5077162;28;19947;-85
2022/05/19 08:49:25;;;;;;;;;;;;;;;24.72;52.23;101487.03;5077417;28;19941;-92
2022/05/19 08:51:55;;;;;;;;;;;;;;;24.74;52.13;101486.69;5078487;28;19974;-82
2022/05/19 08:54:23;;;;;;;;;;;;;;;24.75;52.38;101478.09;5076918;28;19958;-83
2022/05/19 08:56:55;;;;;;;;;;;;;;;24.77;52.03;101475.00;5076597;28;20025;-93
2022/05/19 08:59:27;;;;;;;;;;;;;;;24.79;51.95;101469.97;5078126;28;19931;-94
2022/05/19 09:01:53;;;;;;;;;;;;;;;24.80;52.21;101466.09;5077745;28;20475;-94
2022/05/19 09:04:31;;;;;;;;;;;;;;;24.82;52.04;101463.78;5077139;28;19927;-89
2022/05/19 09:09:59;;;;;;;;;;;;;;;24.83;52.00;101462.66;5076568;28;19927;-86
2022/05/19 09:12:27;;;;;;;;;;;;;;;24.84;52.41;101469.81;5077020;28;19927;-85
2022/05/19 09:14:52;;;;;;;;;;;;;;;24.85;52.22;101471.47;5081508;28;19950;-90
2022/05/19 09:17:20;;;;;;;;;;;;;;;24.85;51.90;101476.97;5077108;28;19946;-82
2022/05/19 09:19:51;;;;;;;;;;;;;;;24.86;51.90;101478.59;5076455;28;19936;-83
2022/05/19 09:22:24;;;;;;;;;;;;;;;24.87;52.13;101491.25;5077676;28;20032;-86
2022/05/19 09:24:50;;;;;;;;;;;;;;;24.87;51.90;101485.75;5077408;28;19939;-87
2022/05/19 09:27:18;;;;;;;;;;;;;;;24.88;51.96;101486.56;5077181;28;19923;-83
2022/05/19 09:29:50;;;;;;;;;;;;;;;24.87;52.13;101480.22;5080868;28;19931;-83
2022/05/19 09:32:23;;;;;;;;;;;;;;;24.88;51.86;101490.16;5093851;28;19953;-88
2022/05/19 09:34:50;;;;;;;;;;;;;;;24.88;52.03;101481.06;5096747;28;19963;-92
2022/05/19 09:37:28;;;;;;;;;;;;;;;24.89;52.07;101477.94;5089914;28;19982;-82
2022/05/19 09:39:59;;;;;;;;;;;;;;;24.88;51.70;101484.63;5093451;28;19916;-89
2022/05/19 09:42:34;;;;;;;;;;;;;;;24.89;51.82;101475.19;5086969;28;19934;-83
2022/05/19 09:44:59;;;;;;;;;;;;;;;24.91;52.20;101469.34;5079006;28;19926;-87
2022/05/19 09:47:27;;;;;;;;;;;;;;;24.91;51.79;101466.59;5078327;28;19931;-88
2022/05/19 09:49:55;;;;;;;;;;;;;;;24.91;52.05;101464.63;5077308;28;20467;-86
2022/05/19 09:52:24;;;;;;;;;;;;;;;24.92;51.61;101457.16;5082391;28;19921;-81
2022/05/19 09:54:52;;;;;;;;;;;;;;;24.92;51.62;101466.28;5080488;28;19972;-83
2022/05/19 09:57:23;;;;;;;;;;;;;;;24.93;51.80;101462.34;5078121;28;19924;-85
2022/05/19 09:59:50;;;;;;;;;;;;;;;24.95;51.69;101467.56;5078087;28;19912;-82
2022/05/19 10:02:24;;;;;;;;;;;;;;;24.95;51.90;101462.84;5076719;28;19985;-84
2022/05/19 10:04:51;;;;;;;;;;;;;;;24.96;51.61;101455.38;5076818;28;19935;-87
2022/05/19 10:07:24;;;;;;;;;;;;;;;24.97;51.71;101451.47;5076796;28;19927;-85
2022/05/19 10:09:55;;;;;;;;;;;;;;;24.97;51.64;101446.78;5075844;28;19950;-88
2022/05/19 10:12:28;;;;;;;;;;;;;;;24.98;51.62;101433.75;5076365;28;19930;-87
2022/05/19 10:15:01;;;;;;;;;;;;;;;25.00;51.95;101435.06;5077297;28;20363;-87
2022/05/19 10:17:45;;;;;;;;;;;;;;;25.00;51.74;101426.78;5075985;28;19935;-86
2022/05/19 10:20:10;;;;;;;;;;;;;;;25.02;51.66;101438.31;5075273;28;20375;-90
2022/05/19 10:22:54;;;;;;;;;;;;;;;25.02;51.97;101430.03;5079496;28;19933;-94
2022/05/19 10:25:28;;;;;;;;;;;;;;;25.04;51.92;101430.50;5078420;28;19920;-86
2022/05/19 10:31:05;;;;;;;;;;;;;;;25.05;51.55;101436.84;5092561;28;19930;-92
2022/05/19 10:33:39;;;;;;;;;;;;;;;25.05;51.41;101445.97;5096188;28;19931;-91
2022/05/19 10:36:11;;;;;;;;;;;;;;;25.07;51.89;101450.34;5090674;28;19986;-88
2022/05/19 10:38:36;;;;;;;;;;;;;;;25.07;51.48;101451.16;5085559;28;19938;-87
2022/05/19 10:41:06;;;;;;;;;;;;;;;25.08;51.49;101450.03;5083013;28;19998;-93
2022/05/19 10:43:50;;;;;;;;;;;;;;;25.09;51.86;101448.06;5083907;28;19938;-89
2022/05/19 10:46:20;;;;;;;;;;;;;;;25.09;51.99;101448.06;5077467;28;19974;-87
2022/05/19 10:48:57;;;;;;;;;;;;;;;25.08;51.88;101440.94;5076869;28;19953;-86
2022/05/19 10:51:31;;;;;;;;;;;;;;;25.09;51.67;101446.09;5077801;28;20057;-86
2022/05/19 10:54:23;;;;;;;;;;;;;;;25.09;51.73;101426.75;5089909;28;20282;-89
2022/05/19 10:57:07;;;;;;;;;;;;;;;25.09;52.01;101437.00;5051618;28;19984;-87
2022/05/19 11:00:02;;;;;;;;;;;;;;;25.08;51.81;101444.50;5073438;28;19931;-87
2022/05/19 11:02:28;;;;;;;;;;;;;;;25.08;52.01;101447.25;5065304;28;19940;-88
2022/05/19 11:05:06;;;;;;;;;;;;;;;25.08;51.59;101438.16;5074092;28;19939;-82
2022/05/19 11:07:31;;;;;;;;;;;;;;;25.06;51.86;101444.00;5072896;28;19994;-85
2022/05/19 11:10:04;;;;;;;;;;;;;;;25.06;51.70;101444.00;5073001;28;19986;-86
2022/05/19 11:12:47;;;;;;;;;;;;;;;25.05;51.64;101459.78;5074057;28;19939;-84
2022/05/19 11:15:18;;;;;;;;;;;;;;;25.04;52.06;101471.16;5074836;28;20008;-85
2022/05/19 11:17:48;;;;;;;;;;;;;;;25.03;51.72;101506.28;5074347;28;19953;-86
2022/05/19 11:20:16;;;;;;;;;;;;;;;25.03;51.80;101536.69;5074165;28;20017;-85
2022/05/19 11:22:42;;;;;;;;;;;;;;;25.03;52.00;101635.38;5073025;28;19916;-83
2022/05/19 11:28:05;;;;;;;;;;;;;;;24.95;51.91;101606.56;5074190;28;19928;-83
2022/05/19 11:30:36;;;;;;;;;;;;;;;24.90;52.01;101609.47;5073614;28;20335;-80
2022/05/19 11:33:04;;;;;;;;;;;;;;;24.89;52.01;101800.47;5073624;28;19927;-79
2022/05/19 11:35:39;;;;;;;;;;;;;;;24.88;51.94;101885.34;5073094;28;20344;-83
2022/05/19 11:38:10;;;;;;;;;;;;;;;24.89;51.67;101925.66;5073927;28;20395;-83
2022/05/19 11:40:45;;;;;;;;;;;;;;;24.90;51.52;101885.03;5072796;28;20359;-81
2022/05/19 11:43:29;;;;;;;;;;;;;;;24.91;51.69;101820.31;5074074;28;19912;-83
2022/05/19 11:45:59;;;;;;;;;;;;;;;24.90;52.00;101786.34;5073652;28;20416;-82
2022/05/19 11:57:37;;;;;;;;;;;;;;;24.91;51.51;101684.91;5073857;28;19966;-80
2022/05/19 12:00:04;;;;;;;;;;;;;;;24.91;51.42;101658.06;5073680;28;20232;-82
2022/05/19 12:02:38;;;;;;;;;;;;;;;24.92;51.41;101669.94;5073065;28;19931;-83
2022/05/19 12:05:26;;;;;;;;;;;;;;;24.91;51.42;101688.47;5073107;28;19912;-83
2022/05/19 12:07:56;;;;;;;;;;;;;;;24.91;51.45;101682.94;5072449;28;19917;-80
2022/05/19 12:10:42;;;;;;;;;;;;;;;24.92;51.56;101678.22;5073375;28;19924;-81
2022/05/19 12:13:08;;;;;;;;;;;;;;;24.92;51.55;101698.41;5072555;28;19929;-82
2022/05/19 12:15:34;;;;;;;;;;;;;;;24.93;51.91;101691.75;5073454;28;19956;-82
2022/05/19 12:17:59;;;;;;;;;;;;;;;24.93;51.42;101696.47;5071965;28;19913;-82
2022/05/19 12:20:33;;;;;;;;;;;;;;;24.93;51.75;101697.28;5073588;28;19973;-83
2022/05/19 12:23:17;;;;;;;;;;;;;;;24.94;51.90;101698.88;5071664;28;19973;-81
2022/05/19 12:25:44;;;;;;;;;;;;;;;24.94;51.39;101675.97;5073257;28;19945;-85
2022/05/19 12:28:12;;;;;;;;;;;;;;;24.93;51.80;101688.97;5073963;28;19958;-84
2022/05/19 12:33:28;;;;;;;;;;;;;;;24.95;51.55;101669.31;5073375;28;19933;-84
2022/05/19 12:36:12;;;;;;;;;;;;;;;24.95;51.71;101650.78;5073627;28;19921;-82
2022/05/19 12:38:43;;;;;;;;;;;;;;;24.95;51.40;101634.22;5073215;28;19926;-83
2022/05/19 12:41:09;;;;;;;;;;;;;;;24.96;51.78;101640.53;5073643;28;19923;-82
2022/05/19 12:43:42;;;;;;;;;;;;;;;24.97;51.65;101620.06;5073088;28;19938;-84
2022/05/19 12:46:13;;;;;;;;;;;;;;;24.97;51.74;101615.38;5072964;28;19970;-85
2022/05/19 12:48:38;;;;;;;;;;;;;;;24.97;51.40;101617.28;5071587;28;19931;-88
2022/05/19 12:51:11;;;;;;;;;;;;;;;24.98;51.89;101597.63;5074131;28;20344;-86
2022/05/19 12:53:43;;;;;;;;;;;;;;;24.99;51.48;101599.25;5077373;28;19924;-86
2022/05/19 12:56:10;;;;;;;;;;;;;;;24.99;51.45;101596.47;5075658;28;19912;-87
2022/05/19 12:58:45;;;;;;;;;;;;;;;25.01;51.61;101593.41;5076781;28;19941;-84
2022/05/19 13:01:29;;;;;;;;;;;;;;;25.00;51.74;101594.56;5075613;28;20295;-87
2022/05/19 13:04:01;;;;;;;;;;;;;;;25.01;51.66;101608.03;5076512;28;19935;-83
2022/05/19 13:06:27;;;;;;;;;;;;;;;25.02;51.70;101592.25;5076377;28;19923;-87
2022/05/19 13:08:54;;;;;;;;;;;;;;;25.04;51.59;101598.28;5076607;28;20345;-85